Time;durP1;ratioP1;P1;durP2;ratioP2;P2;SDS_P1;SDS_P2;PMS_P1;PMS_P2;Temp;Humidity;BMP_temperature;BMP_pressure;BME280_temperature;BME280_humidity;BME280_pressure;Samples;Min_cycle;Max_cycle;Signal;HPM_P1;HPM_P2
2022/01/06 00:01:42;;;;;;;27.52;6.07;;;;;;;3.08;100.00;101118.84;4910707;28;20059;-73
2022/01/06 00:04:08;;;;;;;47.40;11.85;;;;;;;3.05;100.00;101121.81;4923060;28;20118;-73
2022/01/06 00:06:40;;;;;;;59.38;15.77;;;;;;;3.08;100.00;101127.66;4922616;28;20150;-73
2022/01/06 00:09:07;;;;;;;62.17;18.98;;;;;;;3.19;100.00;101131.88;4906652;28;21041;-73
2022/01/06 00:11:33;;;;;;;51.13;16.25;;;;;;;3.30;100.00;101130.78;4904323;28;20125;-73
2022/01/06 00:14:08;;;;;;;59.60;20.65;;;;;;;3.50;100.00;101129.56;4906222;28;25291;-72
2022/01/06 00:24:22;;;;;;;63.50;19.27;;;;;;;3.71;100.00;101154.97;4922561;28;20144;-72
2022/01/06 00:26:50;;;;;;;52.05;11.07;;;;;;;3.77;100.00;101157.81;4912099;28;20099;-74
2022/01/06 00:29:17;;;;;;;32.83;7.57;;;;;;;3.71;100.00;101158.44;4923254;28;20126;-72
2022/01/06 00:31:42;;;;;;;26.45;4.70;;;;;;;3.58;100.00;101164.25;4917690;28;20054;-72
2022/01/06 00:34:10;;;;;;;29.25;4.60;;;;;;;3.54;100.00;101152.22;4914577;28;20101;-71
2022/01/06 00:36:40;;;;;;;31.15;4.13;;;;;;;3.41;100.00;101169.66;4905861;28;21583;-72
2022/01/06 00:39:06;;;;;;;38.25;4.68;;;;;;;3.41;100.00;101167.81;4910609;28;20138;-72
2022/01/06 00:41:34;;;;;;;33.90;4.57;;;;;;;3.37;100.00;101174.47;4924006;28;20051;-71
2022/01/06 00:44:00;;;;;;;27.35;4.68;;;;;;;3.40;100.00;101167.97;4907769;28;20062;-72
2022/01/06 00:46:25;;;;;;;24.00;4.70;;;;;;;3.37;100.00;101170.94;4922806;28;20043;-72
2022/01/06 00:48:51;;;;;;;31.92;5.55;;;;;;;3.28;100.00;101183.38;4905951;28;20039;-72
2022/01/06 00:51:16;;;;;;;33.17;5.63;;;;;;;3.19;100.00;101173.66;4909222;28;20051;-72
2022/01/06 00:53:42;;;;;;;24.88;4.40;;;;;;;3.18;100.00;101182.63;4923465;28;20109;-72
2022/01/06 00:56:07;;;;;;;25.25;3.35;;;;;;;3.01;100.00;101177.19;4910542;28;20130;-72
2022/01/06 00:58:33;;;;;;;29.98;4.30;;;;;;;2.96;100.00;101195.47;4921835;28;20034;-72
2022/01/06 01:00:58;;;;;;;39.30;5.25;;;;;;;2.89;100.00;101189.09;4921628;28;20615;-72
2022/01/06 01:03:24;;;;;;;28.13;3.65;;;;;;;2.73;100.00;101192.44;4906744;28;20726;-72
2022/01/06 01:05:53;;;;;;;23.90;4.22;;;;;;;2.70;100.00;101205.22;4922278;28;20066;-72
2022/01/06 01:08:19;;;;;;;36.30;5.25;;;;;;;2.70;100.00;101199.88;4921288;28;20493;-72
2022/01/06 01:10:45;;;;;;;24.88;5.10;;;;;;;2.71;100.00;101199.75;4923064;28;20062;-72
2022/01/06 01:13:12;;;;;;;34.88;4.47;;;;;;;2.69;100.00;101198.22;4924479;28;20105;-72
2022/01/06 01:15:48;;;;;;;35.25;5.47;;;;;;;2.57;100.00;101209.09;4916707;28;20042;-72
2022/01/06 01:18:17;;;;;;;31.20;4.57;;;;;;;2.47;100.00;101205.69;4927942;28;20027;-71
2022/01/06 01:20:43;;;;;;;32.80;4.03;;;;;;;2.39;100.00;101202.94;4913756;28;20142;-72
2022/01/06 01:23:08;;;;;;;22.25;3.15;;;;;;;2.34;100.00;101213.16;4926256;28;20064;-72
2022/01/06 01:25:34;;;;;;;21.70;3.35;;;;;;;2.25;100.00;101222.06;4903703;28;20081;-72
2022/01/06 01:27:59;;;;;;;28.35;3.70;;;;;;;2.19;100.00;101230.63;4916364;28;20106;-72
2022/01/06 01:30:38;;;;;;;21.90;3.55;;;;;;;2.03;100.00;101225.94;4927818;28;20037;-72
2022/01/06 01:33:05;;;;;;;18.85;3.10;;;;;;;1.97;100.00;101230.03;4911945;28;20133;-72
2022/01/06 01:35:32;;;;;;;21.77;3.17;;;;;;;1.81;100.00;101240.44;4927415;28;20060;-72
2022/01/06 01:37:58;;;;;;;17.33;2.28;;;;;;;1.74;100.00;101250.00;4910996;28;20133;-73
2022/01/06 01:40:24;;;;;;;19.45;3.35;;;;;;;1.65;100.00;101257.84;4926909;28;20043;-73
2022/01/06 01:42:49;;;;;;;15.57;2.20;;;;;;;1.46;100.00;101268.50;4928161;28;20034;-73
2022/01/06 01:45:16;;;;;;;21.25;2.75;;;;;;;1.29;100.00;101266.59;4912885;28;20477;-72
2022/01/06 01:47:45;;;;;;;18.23;2.70;;;;;;;1.21;100.00;101277.09;4926550;28;20085;-72
2022/01/06 01:50:16;;;;;;;22.02;2.30;;;;;;;0.98;100.00;101269.41;4910855;28;20059;-73
2022/01/06 01:52:44;;;;;;;22.73;3.03;;;;;;;0.75;100.00;101271.50;4925160;28;20027;-73
2022/01/06 01:55:11;;;;;;;15.45;2.25;;;;;;;0.60;100.00;101271.06;4926079;28;20058;-73
2022/01/06 01:57:37;;;;;;;16.17;2.10;;;;;;;0.39;100.00;101273.00;4913838;28;21154;-72
2022/01/06 02:00:06;;;;;;;19.05;2.08;;;;;;;0.21;100.00;101280.72;4926173;28;20043;-73
2022/01/06 02:02:32;;;;;;;21.98;2.50;;;;;;;0.11;100.00;101287.81;4909534;28;20149;-73
2022/01/06 02:04:57;;;;;;;12.40;2.30;;;;;;;0.09;100.00;101293.25;4927808;28;20094;-72
2022/01/06 02:07:22;;;;;;;13.73;2.15;;;;;;;0.11;100.00;101291.31;4920221;28;20073;-73
2022/01/06 02:09:48;;;;;;;18.75;2.33;;;;;;;0.22;100.00;101288.56;4915322;28;21240;-73
2022/01/06 02:12:30;;;;;;;33.42;5.40;;;;;;;0.70;100.00;101298.44;4927150;28;20031;-73
2022/01/06 02:14:56;;;;;;;34.78;5.63;;;;;;;1.01;100.00;101295.66;4908609;28;20185;-73
2022/01/06 02:17:22;;;;;;;38.50;6.45;;;;;;;1.15;100.00;101303.19;4907618;28;20089;-73
2022/01/06 02:19:58;;;;;;;31.02;5.80;;;;;;;1.23;100.00;101293.69;4921761;28;20050;-73
2022/01/06 02:22:24;;;;;;;34.72;9.18;;;;;;;1.39;100.00;101293.94;4923597;28;20056;-73
2022/01/06 02:24:50;;;;;;;31.27;6.55;;;;;;;1.61;100.00;101301.59;4920767;28;20043;-72
2022/01/06 02:27:16;;;;;;;26.00;5.00;;;;;;;1.69;100.00;101310.69;4906310;28;20134;-72
2022/01/06 02:29:43;;;;;;;25.67;3.53;;;;;;;1.64;100.00;101313.75;4923313;28;20078;-72
2022/01/06 02:32:15;;;;;;;26.65;4.22;;;;;;;1.63;100.00;101323.53;4908175;28;20061;-72
2022/01/06 02:34:41;;;;;;;15.82;3.03;;;;;;;1.64;100.00;101322.53;4922387;28;20039;-72
2022/01/06 02:37:06;;;;;;;20.17;3.42;;;;;;;1.74;100.00;101316.38;4924479;28;20050;-72
2022/01/06 02:39:33;;;;;;;32.28;4.50;;;;;;;1.79;100.00;101330.06;4909325;28;20061;-72
2022/01/06 02:41:58;;;;;;;36.15;9.18;;;;;;;1.85;100.00;101332.97;4923937;28;20122;-72
2022/01/06 02:44:25;;;;;;;53.40;13.80;;;;;;;2.01;100.00;101343.03;4909204;28;20043;-72
2022/01/06 02:46:53;;;;;;;48.72;17.60;;;;;;;2.08;100.00;101344.13;4926703;28;20046;-72
2022/01/06 02:49:18;;;;;;;52.42;14.57;;;;;;;2.20;100.00;101351.91;4926350;28;20038;-72
2022/01/06 02:51:44;;;;;;;41.03;10.45;;;;;;;2.32;100.00;101350.75;4916661;28;20169;-72
2022/01/06 02:54:09;;;;;;;32.75;9.55;;;;;;;2.45;100.00;101358.38;4926457;28;20047;-72
2022/01/06 02:56:37;;;;;;;22.55;4.38;;;;;;;2.50;100.00;101348.97;4914102;28;20099;-72
2022/01/06 02:59:03;;;;;;;21.08;2.90;;;;;;;2.50;100.00;101359.63;4924500;28;20027;-72
2022/01/06 03:01:29;;;;;;;21.40;3.03;;;;;;;2.44;100.00;101365.50;4925494;28;20588;-72
2022/01/06 03:03:54;;;;;;;17.83;2.28;;;;;;;2.38;100.00;101372.25;4892723;28;20095;-72
2022/01/06 03:06:19;;;;;;;22.17;2.78;;;;;;;2.25;100.00;101360.28;4924449;28;20046;-72
2022/01/06 03:08:45;;;;;;;20.42;2.75;;;;;;;2.21;100.00;101373.03;4911220;28;20083;-72
2022/01/06 03:11:10;;;;;;;35.55;3.03;;;;;;;2.06;100.00;101377.97;4926544;28;20090;-73
2022/01/06 03:13:36;;;;;;;21.30;2.80;;;;;;;1.83;100.00;101376.63;4920951;28;20031;-72
2022/01/06 03:16:02;;;;;;;18.25;2.58;;;;;;;1.80;100.00;101371.59;4912949;28;20059;-72
2022/01/06 03:18:28;;;;;;;17.10;2.30;;;;;;;1.75;100.00;101373.84;4924182;28;20038;-72
2022/01/06 03:20:54;;;;;;;22.50;2.97;;;;;;;1.59;100.00;101380.56;4911082;28;20058;-71
2022/01/06 03:23:19;;;;;;;19.38;3.20;;;;;;;1.31;100.00;101381.41;4925348;28;20043;-71
2022/01/06 03:25:45;;;;;;;16.25;2.33;;;;;;;1.00;100.00;101389.50;4918946;28;20038;-71
2022/01/06 03:28:10;;;;;;;19.83;2.58;;;;;;;0.74;100.00;101398.91;4915879;28;20062;-71
2022/01/06 03:30:36;;;;;;;24.05;2.53;;;;;;;0.53;100.00;101407.78;4923244;28;20031;-71
2022/01/06 03:33:01;;;;;;;19.33;2.50;;;;;;;0.37;100.00;101407.44;4909425;28;20061;-71
2022/01/06 03:35:27;;;;;;;18.60;2.88;;;;;;;0.26;100.00;101407.53;4922412;28;20052;-71
2022/01/06 03:37:52;;;;;;;21.45;2.92;;;;;;;0.13;100.00;101405.91;4917579;28;20145;-72
2022/01/06 03:40:18;;;;;;;21.52;3.05;;;;;;;0.00;100.00;101415.91;4913022;28;21082;-71
2022/01/06 03:42:44;;;;;;;21.73;2.63;;;;;;;-0.13;100.00;101416.09;4925087;28;20039;-72
2022/01/06 03:45:15;;;;;;;13.88;2.30;;;;;;;-0.27;100.00;101417.25;4908812;28;20053;-71
2022/01/06 03:47:41;;;;;;;23.17;3.10;;;;;;;-0.41;100.00;101417.56;4924926;28;20065;-71
2022/01/06 03:50:07;;;;;;;20.02;2.83;;;;;;;-0.54;100.00;101406.28;4901535;28;20069;-71
2022/01/06 03:52:33;;;;;;;14.95;2.58;;;;;;;-0.64;100.00;101415.97;4915140;28;20724;-71
2022/01/06 03:54:58;;;;;;;21.27;2.72;;;;;;;-0.79;100.00;101412.78;4909104;28;20043;-71
2022/01/06 03:57:24;;;;;;;17.77;2.05;;;;;;;-0.86;100.00;101415.06;4910330;28;20055;-71
2022/01/06 03:59:49;;;;;;;14.25;2.10;;;;;;;-0.93;100.00;101421.81;4923268;28;20024;-72
2022/01/06 04:02:15;;;;;;;14.30;2.72;;;;;;;-1.00;100.00;101418.00;4918894;28;20047;-71
2022/01/06 04:04:40;;;;;;;22.35;3.67;;;;;;;-1.04;100.00;101422.69;4913165;28;20062;-71
2022/01/06 04:07:05;;;;;;;20.38;3.33;;;;;;;-1.08;100.00;101423.91;4925749;28;20031;-71
2022/01/06 04:09:31;;;;;;;31.52;3.80;;;;;;;-0.87;100.00;101426.63;4911502;28;20051;-71
2022/01/06 04:11:56;;;;;;;12.07;3.00;;;;;;;-0.87;100.00;101433.72;4908593;28;20046;-71
2022/01/06 04:14:22;;;;;;;27.67;2.55;;;;;;;-0.86;100.00;101433.59;4917708;28;20047;-71
2022/01/06 04:16:47;;;;;;;35.33;4.20;;;;;;;-0.84;100.00;101446.66;4915198;28;20050;-71
2022/01/06 04:19:13;;;;;;;32.35;4.20;;;;;;;-0.82;100.00;101442.13;4925186;28;20073;-71
2022/01/06 04:21:38;;;;;;;30.10;3.10;;;;;;;-0.83;100.00;101457.16;4910784;28;20133;-71
2022/01/06 04:24:04;;;;;;;27.10;4.05;;;;;;;-0.81;100.00;101451.72;4907956;28;20038;-71
2022/01/06 04:26:30;;;;;;;32.35;5.82;;;;;;;-0.81;100.00;101452.59;4920270;28;20057;-71
2022/01/06 04:28:55;;;;;;;28.55;3.83;;;;;;;-0.73;100.00;101460.72;4911820;28;20043;-70
2022/01/06 04:31:21;;;;;;;28.98;3.15;;;;;;;-0.67;100.00;101447.97;4924780;28;20055;-70
2022/01/06 04:33:46;;;;;;;33.47;3.53;;;;;;;-0.68;100.00;101451.56;4907125;28;20110;-70
2022/01/06 04:36:12;;;;;;;26.70;5.03;;;;;;;-0.77;100.00;101456.66;4923361;28;20511;-70
2022/01/06 04:38:37;;;;;;;29.50;3.72;;;;;;;-0.85;100.00;101455.59;4914262;28;20078;-70
2022/01/06 04:41:04;;;;;;;32.78;3.70;;;;;;;-0.90;100.00;101463.91;4912501;28;20039;-70
2022/01/06 04:43:29;;;;;;;27.45;2.97;;;;;;;-0.92;100.00;101465.81;4924157;28;20066;-70
2022/01/06 04:45:55;;;;;;;29.15;3.53;;;;;;;-0.96;100.00;101459.09;4911907;28;20074;-70
2022/01/06 04:48:20;;;;;;;31.15;3.60;;;;;;;-1.03;100.00;101473.78;4928280;28;20039;-70
2022/01/06 04:50:46;;;;;;;23.33;5.50;;;;;;;-1.10;100.00;101472.56;4934856;28;20091;-70
2022/01/06 04:53:11;;;;;;;25.67;3.97;;;;;;;-1.12;100.00;101474.50;4932698;28;20047;-70
2022/01/06 04:55:37;;;;;;;25.00;3.30;;;;;;;-1.13;100.00;101467.53;4926485;28;20043;-71
2022/01/06 04:58:02;;;;;;;28.20;3.70;;;;;;;-1.14;100.00;101471.97;4912796;28;20059;-70
2022/01/06 05:00:27;;;;;;;31.27;5.63;;;;;;;-1.18;100.00;101477.63;4927673;28;20039;-70
2022/01/06 05:02:53;;;;;;;20.08;3.30;;;;;;;-1.27;100.00;101472.09;4913853;28;20985;-71
2022/01/06 05:05:18;;;;;;;48.13;5.30;;;;;;;-1.28;100.00;101481.00;4926022;28;20027;-72
2022/01/06 05:07:44;;;;;;;38.13;3.85;;;;;;;-1.29;100.00;101489.91;4928004;28;20447;-71
2022/01/06 05:10:10;;;;;;;32.47;5.95;;;;;;;-1.28;100.00;101496.00;4912429;28;20051;-71
2022/01/06 05:12:43;;;;;;;41.83;4.32;;;;;;;-1.27;100.00;101487.94;4928697;28;20049;-71
2022/01/06 05:15:10;;;;;;;38.20;5.65;;;;;;;-1.31;100.00;101486.50;4914091;28;20058;-71
2022/01/06 05:17:36;;;;;;;30.90;3.63;;;;;;;-1.34;100.00;101497.31;4929060;28;20039;-71
2022/01/06 05:20:03;;;;;;;40.92;4.18;;;;;;;-1.32;100.00;101491.94;4928186;28;20031;-71
2022/01/06 05:22:29;;;;;;;30.45;4.20;;;;;;;-1.40;100.00;101497.81;4910623;28;20508;-71
2022/01/06 05:24:55;;;;;;;29.15;4.32;;;;;;;-1.40;100.00;101497.81;4924933;28;20122;-70
2022/01/06 05:27:21;;;;;;;31.17;4.25;;;;;;;-1.33;100.00;101488.47;4907432;28;23980;-71
2022/01/06 05:29:46;;;;;;;30.65;4.60;;;;;;;-1.25;100.00;101501.06;4926587;28;20043;-71
2022/01/06 05:32:11;;;;;;;37.90;3.78;;;;;;;-1.16;100.00;101504.78;4925418;28;22377;-71
2022/01/06 05:34:37;;;;;;;38.28;4.32;;;;;;;-1.09;100.00;101512.13;4916349;28;20766;-71
2022/01/06 05:37:03;;;;;;;25.00;4.00;;;;;;;-1.08;100.00;101507.69;4926434;28;20150;-71
2022/01/06 05:39:28;;;;;;;28.10;4.75;;;;;;;-1.12;100.00;101516.78;4911809;28;20081;-71
2022/01/06 05:41:53;;;;;;;32.53;4.53;;;;;;;-1.13;100.00;101515.94;4926896;28;20801;-71
2022/01/06 05:44:19;;;;;;;41.15;6.55;;;;;;;-1.08;100.00;101512.97;4918370;28;20043;-72
2022/01/06 05:46:47;;;;;;;45.65;8.85;;;;;;;-1.04;100.00;101519.69;4915249;28;20058;-71
2022/01/06 05:49:14;;;;;;;38.67;6.50;;;;;;;-0.99;100.00;101517.50;4922580;28;20039;-71
2022/01/06 05:51:39;;;;;;;52.25;6.68;;;;;;;-0.94;100.00;101525.94;4907602;28;20217;-71
2022/01/06 05:54:05;;;;;;;38.55;5.78;;;;;;;-1.04;100.00;101532.91;4909282;28;20034;-71
2022/01/06 05:56:31;;;;;;;35.25;5.10;;;;;;;-1.10;100.00;101536.03;4919283;28;20511;-71
2022/01/06 05:58:57;;;;;;;27.83;5.20;;;;;;;-1.05;100.00;101539.19;4916140;28;20574;-71
2022/01/06 06:01:22;;;;;;;40.03;7.35;;;;;;;-0.99;100.00;101550.09;4925181;28;20039;-70
2022/01/06 06:03:49;;;;;;;35.70;5.18;;;;;;;-0.90;100.00;101553.81;4908708;28;20111;-70
2022/01/06 06:06:14;;;;;;;28.70;4.30;;;;;;;-0.98;100.00;101546.50;4927255;28;20154;-70
2022/01/06 06:08:40;;;;;;;29.65;4.03;;;;;;;-1.04;100.00;101551.44;4920900;28;20046;-70
2022/01/06 06:11:06;;;;;;;29.65;3.83;;;;;;;-1.09;100.00;101545.63;4917112;28;20102;-70
2022/01/06 06:13:31;;;;;;;32.67;5.47;;;;;;;-1.12;100.00;101554.66;4924591;28;20035;-70
2022/01/06 06:15:57;;;;;;;39.67;4.72;;;;;;;-1.08;100.00;101550.00;4909693;28;20050;-70
2022/01/06 06:18:22;;;;;;;34.35;5.78;;;;;;;-1.03;100.00;101547.81;4924176;28;20034;-71
2022/01/06 06:20:48;;;;;;;32.92;4.72;;;;;;;-0.90;100.00;101555.63;4919653;28;20080;-71
2022/01/06 06:23:13;;;;;;;28.67;5.35;;;;;;;-0.96;100.00;101549.00;4916958;28;20055;-71
2022/01/06 06:25:39;;;;;;;26.67;3.60;;;;;;;-1.06;100.00;101548.03;4921966;28;20086;-71
2022/01/06 06:28:04;;;;;;;28.55;5.65;;;;;;;-1.16;100.00;101550.56;4909838;28;20069;-71
2022/01/06 06:30:30;;;;;;;42.60;6.25;;;;;;;-1.22;100.00;101559.81;4925637;28;20057;-71
2022/01/06 06:32:55;;;;;;;38.17;5.82;;;;;;;-1.20;100.00;101557.06;4893257;28;20050;-71
2022/01/06 06:35:20;;;;;;;35.17;4.80;;;;;;;-1.09;100.00;101564.16;4921791;28;20043;-71
2022/01/06 06:37:46;;;;;;;39.35;5.18;;;;;;;-1.02;100.00;101571.50;4924056;28;20176;-71
2022/01/06 06:40:12;;;;;;;31.80;5.43;;;;;;;-0.96;100.00;101576.28;4868742;28;1117654;-71
2022/01/06 06:42:37;;;;;;;36.03;5.28;;;;;;;-0.86;100.00;101578.22;4923859;28;20063;-71
2022/01/06 06:45:03;;;;;;;34.67;5.03;;;;;;;-0.78;100.00;101583.75;4906681;28;20526;-71
2022/01/06 06:47:29;;;;;;;28.88;4.30;;;;;;;-0.77;100.00;101583.66;4924381;28;20899;-71
2022/01/06 06:49:56;;;;;;;34.70;4.53;;;;;;;-0.68;100.00;101587.34;4906190;28;20039;-71
2022/01/06 06:52:22;;;;;;;25.15;3.58;;;;;;;-0.64;100.00;101586.13;4908683;28;20105;-71
2022/01/06 06:54:48;;;;;;;31.00;4.00;;;;;;;-0.64;100.00;101588.78;4924332;28;20750;-71
2022/01/06 06:57:14;;;;;;;23.58;3.47;;;;;;;-0.64;100.00;101591.44;4907435;28;20039;-72
2022/01/06 06:59:40;;;;;;;21.20;3.38;;;;;;;-0.66;100.00;101587.25;4923762;28;20083;-71
2022/01/06 07:02:05;;;;;;;27.13;3.95;;;;;;;-0.77;100.00;101594.22;4923256;28;20478;-71
2022/01/06 07:04:31;;;;;;;30.35;3.90;;;;;;;-0.84;100.00;101600.97;4908484;28;20078;-71
2022/01/06 07:06:56;;;;;;;24.75;3.67;;;;;;;-0.94;100.00;101600.00;4921567;28;20038;-71
2022/01/06 07:09:22;;;;;;;17.70;3.40;;;;;;;-1.03;100.00;101616.56;4909058;28;20054;-71
2022/01/06 07:11:47;;;;;;;28.27;4.35;;;;;;;-1.10;100.00;101604.78;4924823;28;22508;-71
2022/01/06 07:14:13;;;;;;;35.38;4.28;;;;;;;-1.17;100.00;101609.69;4920510;28;20037;-70
2022/01/06 07:16:38;;;;;;;39.80;4.38;;;;;;;-1.26;100.00;101615.69;4911968;28;20059;-71
2022/01/06 07:19:04;;;;;;;33.15;5.43;;;;;;;-1.31;100.00;101618.69;4925734;28;20076;-71
2022/01/06 07:21:29;;;;;;;29.30;4.72;;;;;;;-1.38;100.00;101613.97;4906047;28;20055;-71
2022/01/06 07:23:54;;;;;;;27.90;4.63;;;;;;;-1.39;100.00;101629.00;4925220;28;20090;-71
2022/01/06 07:26:20;;;;;;;32.63;4.28;;;;;;;-1.37;100.00;101627.09;4922288;28;20074;-72
2022/01/06 07:28:45;;;;;;;30.73;3.75;;;;;;;-1.37;100.00;101634.16;4912354;28;20126;-71
2022/01/06 07:31:11;;;;;;;44.38;4.65;;;;;;;-1.37;100.00;101642.09;4922893;28;20544;-71
2022/01/06 07:33:37;;;;;;;26.25;4.40;;;;;;;-1.31;100.00;101642.47;4879314;28;20093;-71
2022/01/06 07:36:03;;;;;;;37.05;5.70;;;;;;;-1.30;100.00;101654.75;4907310;28;22594;-70
2022/01/06 07:38:29;;;;;;;34.55;3.95;;;;;;;-1.23;100.00;101657.75;4915971;28;20039;-70
2022/01/06 07:40:55;;;;;;;34.80;5.50;;;;;;;-1.20;100.00;101655.69;4913262;28;20197;-70
2022/01/06 07:43:21;;;;;;;27.20;4.05;;;;;;;-1.00;100.00;101670.06;4907119;28;20114;-70
2022/01/06 07:45:48;;;;;;;48.25;5.35;;;;;;;-0.95;100.00;101669.69;4906334;28;20177;-69
2022/01/06 07:48:18;;;;;;;37.72;4.22;;;;;;;-0.90;100.00;101664.91;4924389;28;20086;-69
2022/01/06 07:50:45;;;;;;;32.85;4.40;;;;;;;-0.89;100.00;101666.59;4919425;28;20038;-69
2022/01/06 07:53:11;;;;;;;31.25;5.78;;;;;;;-0.89;100.00;101666.59;4914273;28;20046;-68
2022/01/06 07:55:37;;;;;;;36.75;4.35;;;;;;;-0.92;100.00;101666.81;4921746;28;20126;-69
2022/01/06 07:58:03;;;;;;;45.10;5.25;;;;;;;-0.88;100.00;101675.34;4907166;28;20145;-68
2022/01/06 08:00:28;;;;;;;23.30;4.28;;;;;;;-0.86;100.00;101668.16;4920092;28;20027;-69
2022/01/06 08:02:54;;;;;;;50.72;5.47;;;;;;;-0.84;100.00;101672.38;4920083;28;20065;-69
2022/01/06 08:05:23;;;;;;;26.83;4.47;;;;;;;-0.77;100.00;101676.25;4930108;28;20050;-69
2022/01/06 08:07:48;;;;;;;40.28;4.85;;;;;;;-0.76;100.00;101669.13;4909304;28;23760;-69
2022/01/06 08:10:14;;;;;;;40.10;4.35;;;;;;;-0.67;100.00;101672.84;4910988;28;20059;-69
2022/01/06 08:12:39;;;;;;;41.15;4.78;;;;;;;-0.41;100.00;101679.63;4938962;28;20505;-69
2022/01/06 08:15:05;;;;;;;31.45;4.07;;;;;;;-0.25;100.00;101679.22;4915633;28;20542;-69
2022/01/06 08:17:31;;;;;;;27.10;4.13;;;;;;;-0.18;100.00;101677.78;4911747;28;20137;-69
2022/01/06 08:19:57;;;;;;;38.40;4.70;;;;;;;-0.02;100.00;101682.69;4922163;28;20026;-69
2022/01/06 08:22:23;;;;;;;22.70;3.80;;;;;;;0.13;100.00;101684.09;4906465;28;20054;-69
2022/01/06 08:24:49;;;;;;;36.63;5.25;;;;;;;0.19;100.00;101680.97;4922421;28;20031;-68
2022/01/06 08:27:14;;;;;;;31.15;4.53;;;;;;;0.26;100.00;101685.75;4915232;28;20066;-68
2022/01/06 08:29:40;;;;;;;31.35;4.32;;;;;;;0.30;100.00;101689.84;4917198;28;22831;-69
2022/01/06 08:32:06;;;;;;;41.58;4.22;;;;;;;0.39;100.00;101705.00;4923573;28;20046;-68
2022/01/06 08:34:33;;;;;;;33.60;3.67;;;;;;;0.59;100.00;101698.03;4908217;28;20207;-68
2022/01/06 08:36:59;;;;;;;29.80;4.70;;;;;;;0.82;100.00;101699.63;4925448;28;20438;-69
2022/01/06 08:39:24;;;;;;;33.38;4.32;;;;;;;1.14;100.00;101702.22;4918932;28;20035;-70
2022/01/06 08:41:50;;;;;;;30.35;4.03;;;;;;;1.50;100.00;101710.66;4914040;28;20507;-69
2022/01/06 08:44:16;;;;;;;20.63;3.60;;;;;;;1.88;100.00;101711.78;4923138;28;25234;-69
2022/01/06 08:46:42;;;;;;;29.20;4.60;;;;;;;2.38;100.00;101719.72;4907053;28;20082;-69
2022/01/06 08:49:11;;;;;;;26.27;3.95;;;;;;;2.68;100.00;101716.13;4924762;28;20065;-70
2022/01/06 08:51:39;;;;;;;24.42;4.30;;;;;;;2.97;100.00;101718.75;4919362;28;20043;-71
2022/01/06 08:54:06;;;;;;;24.92;4.13;;;;;;;3.31;100.00;101718.28;4915734;28;20091;-71
2022/01/06 08:56:33;;;;;;;32.75;4.95;;;;;;;3.67;100.00;101715.78;4907731;28;20065;-71
2022/01/06 08:58:58;;;;;;;24.33;4.05;;;;;;;3.84;100.00;101723.00;4909952;28;20054;-70
2022/01/06 09:01:24;;;;;;;24.30;4.93;;;;;;;3.91;100.00;101718.78;4923760;28;20042;-70
2022/01/06 09:03:49;;;;;;;23.95;4.28;;;;;;;3.94;100.00;101717.66;4907384;28;20054;-70
2022/01/06 09:06:15;;;;;;;31.33;5.32;;;;;;;3.70;100.00;101699.50;4923585;28;20035;-70
2022/01/06 09:08:40;;;;;;;33.75;6.05;;;;;;;3.59;100.00;101714.69;4924591;28;20081;-70
2022/01/06 09:11:06;;;;;;;34.05;5.63;;;;;;;3.36;100.00;101702.72;4909201;28;20069;-71
2022/01/06 09:13:31;;;;;;;22.30;4.30;;;;;;;3.04;100.00;101713.72;4922770;28;20039;-71
2022/01/06 09:15:56;;;;;;;37.28;5.15;;;;;;;2.84;100.00;101723.53;4897442;28;20078;-71
2022/01/06 09:18:22;;;;;;;33.47;5.40;;;;;;;2.79;100.00;101720.47;4923276;28;20031;-72
2022/01/06 09:20:48;;;;;;;24.88;4.53;;;;;;;2.87;100.00;101717.94;4931015;28;20026;-70
2022/01/06 09:23:13;;;;;;;32.63;5.05;;;;;;;3.01;100.00;101720.16;4909086;28;20050;-70
2022/01/06 09:25:39;;;;;;;24.83;4.45;;;;;;;3.20;100.00;101708.66;4924175;28;20118;-70
2022/01/06 09:28:04;;;;;;;33.38;5.10;;;;;;;3.50;100.00;101701.41;4908046;28;20092;-70
2022/01/06 09:30:29;;;;;;;27.15;4.57;;;;;;;3.72;100.00;101708.19;4923090;28;20421;-71
2022/01/06 09:32:55;;;;;;;28.88;5.05;;;;;;;3.72;100.00;101705.53;4925738;28;20510;-71
2022/01/06 09:35:21;;;;;;;26.67;5.45;;;;;;;3.85;100.00;101705.19;4912688;28;20054;-70
2022/01/06 09:37:47;;;;;;;31.23;4.45;;;;;;;4.03;100.00;101714.91;4926058;28;20030;-69
2022/01/06 09:40:13;;;;;;;24.67;4.30;;;;;;;4.15;100.00;101720.91;4913595;28;20055;-71
2022/01/06 09:42:40;;;;;;;25.52;4.90;;;;;;;4.36;100.00;101723.28;4908942;28;20043;-70
2022/01/06 09:45:06;;;;;;;33.17;5.40;;;;;;;4.57;100.00;101724.84;4923627;28;20027;-69
2022/01/06 09:47:32;;;;;;;28.60;4.25;;;;;;;4.83;100.00;101736.41;4913169;28;20058;-70
2022/01/06 09:49:57;;;;;;;27.52;4.68;;;;;;;4.86;100.00;101735.28;4925845;28;20714;-70
2022/01/06 09:52:23;;;;;;;29.27;4.43;;;;;;;4.92;100.00;101732.84;4911416;28;20050;-71
2022/01/06 09:54:49;;;;;;;22.10;3.78;;;;;;;4.95;100.00;101729.84;4908398;28;20109;-71
2022/01/06 09:57:15;;;;;;;26.98;4.60;;;;;;;4.95;100.00;101740.53;4902981;28;20030;-71
2022/01/06 09:59:43;;;;;;;25.00;4.60;;;;;;;5.17;100.00;101752.56;4914624;28;20043;-71
2022/01/06 10:02:16;;;;;;;24.60;4.38;;;;;;;5.22;100.00;101750.25;4923952;28;20039;-70
2022/01/06 10:04:48;;;;;;;22.30;4.32;;;;;;;5.43;100.00;101749.91;4909899;28;20807;-71
2022/01/06 10:07:14;;;;;;;33.90;5.25;;;;;;;5.59;100.00;101749.19;4926259;28;20499;-70
2022/01/06 10:09:40;;;;;;;23.02;4.80;;;;;;;5.77;100.00;101751.78;4917613;28;20051;-71
2022/01/06 10:12:10;;;;;;;23.85;4.93;;;;;;;5.89;100.00;101761.19;4916578;28;20065;-71
2022/01/06 10:14:42;;;;;;;21.55;4.75;;;;;;;6.07;100.00;101752.28;4924174;28;20066;-71
2022/01/06 10:17:08;;;;;;;22.63;4.57;;;;;;;6.05;100.00;101759.63;4909427;28;20058;-71
2022/01/06 10:19:40;;;;;;;33.63;4.55;;;;;;;6.11;100.00;101753.66;4926221;28;20035;-70
2022/01/06 10:22:14;;;;;;;24.52;4.85;;;;;;;6.24;100.00;101750.50;4910072;28;20133;-70
2022/01/06 10:24:42;;;;;;;24.50;4.25;;;;;;;6.35;100.00;101753.72;4923373;28;20030;-70
2022/01/06 10:27:09;;;;;;;21.42;4.97;;;;;;;6.35;100.00;101751.06;4923196;28;20046;-71
2022/01/06 10:29:45;;;;;;;18.83;4.50;;;;;;;6.41;100.00;101750.38;4911951;28;20555;-71
2022/01/06 10:32:15;;;;;;;25.17;4.75;;;;;;;6.68;100.00;101737.72;4925946;28;20050;-71
2022/01/06 10:35:02;;;;;;;29.25;5.47;;;;;;;7.10;100.00;101747.47;4913747;28;20073;-72
2022/01/06 10:37:40;;;;;;;21.95;5.20;;;;;;;7.31;100.00;101745.09;4926683;28;20058;-72
2022/01/06 10:40:08;;;;;;;26.02;4.72;;;;;;;7.71;100.00;101743.34;4910714;28;20061;-72
2022/01/06 10:42:36;;;;;;;32.30;4.55;;;;;;;7.93;100.00;101736.38;4922333;28;20039;-72
2022/01/06 10:45:08;;;;;;;25.20;5.10;;;;;;;8.06;100.00;101742.03;4923691;28;20039;-72
2022/01/06 10:47:34;;;;;;;23.27;5.13;;;;;;;8.17;100.00;101743.50;4911716;28;20047;-73
2022/01/06 10:50:18;;;;;;;26.33;4.22;;;;;;;8.40;95.92;101735.53;4926496;28;20057;-73
2022/01/06 10:52:45;;;;;;;21.60;4.15;;;;;;;8.53;93.03;101732.25;4912546;28;20058;-75
2022/01/06 10:55:16;;;;;;;35.10;5.03;;;;;;;8.64;94.56;101739.09;4926200;28;23688;-73
2022/01/06 10:58:00;;;;;;;21.85;4.40;;;;;;;8.56;82.79;101734.59;4921598;28;20043;-73
2022/01/06 11:00:34;;;;;;;16.35;4.22;;;;;;;8.66;85.96;101727.13;4941862;28;20131;-72
2022/01/06 11:03:16;;;;;;;21.90;3.95;;;;;;;8.84;77.25;101734.91;4925672;28;20513;-71
2022/01/06 11:05:45;;;;;;;23.73;4.10;;;;;;;8.84;70.39;101725.00;4916008;28;20169;-72
2022/01/06 11:08:12;;;;;;;17.83;3.50;;;;;;;8.90;68.43;101734.19;4925285;28;20050;-71
2022/01/06 11:10:45;;;;;;;16.75;3.83;;;;;;;9.12;75.55;101721.72;4892643;28;20146;-72
2022/01/06 11:13:11;;;;;;;24.85;4.20;;;;;;;9.25;67.86;101721.97;4925522;28;20031;-71
2022/01/06 11:15:36;;;;;;;21.83;4.05;;;;;;;9.33;71.92;101729.09;4916323;28;20054;-71
2022/01/06 11:18:04;;;;;;;25.02;4.53;;;;;;;9.23;71.75;101717.78;4915614;28;20605;-72
2022/01/06 11:20:30;;;;;;;24.85;4.95;;;;;;;9.40;77.21;101723.84;4926947;28;20034;-71